De Vrouw Marie — HP9974 — position and weather

sailwx.info

Track history (hours):
 
Tides and Currents Weather Stations Pressure Air Temp Water Temp Dewpoint Dewpoint Depression Visibility Wind Speed Wind Dir Waves Ship Positions

De Vrouw Marie

Last reported at 2015-Dec-30 12:27 UTC. Time now 2016-Feb-11 02:24 UTC.
Position N 34°23' E 033°05'.
Warning: this ship's position is 42 days out of date.

Length 36 m; draft 3.6 m.

Type: Other ship. MMSI: 357030000.

Date/timePositionNaut miles runAvg speedWind from/ knotsBaromVisibWave heightAir tempDewpointWater temp
2015-Dec-30 12:27N 34°23' E 033°05'6 6.9
2015-Dec-30 11:34N 34°29' E 033°06'7 6.6
2015-Dec-30 10:34N 34°36' E 033°06'5 4.7
2015-Dec-30 09:34N 34°40' E 033°05'1 0.6
2015-Dec-30 08:33N 34°41' E 033°05'0 0.0
2015-Dec-30 07:33N 34°41' E 033°05'0 0.0
2015-Dec-30 06:33N 34°41' E 033°05'2 2.4
2015-Dec-30 05:33N 34°38' E 033°04'6 5.9
2015-Dec-30 04:33N 34°32' E 033°05'6 6.4
2015-Dec-30 03:33N 34°26' E 033°04'  
Track history (hours):
 
Tides and Currents Weather Stations Pressure Air Temp Water Temp Dewpoint Dewpoint Depression Visibility Wind Speed Wind Dir Waves Ship Positions

De Vrouw Marie

Last reported at 2015-Dec-30 12:27 UTC. Time now 2016-Feb-11 02:24 UTC.
Position N 34°23' E 033°05'.
Warning: this ship's position is 42 days out of date.

Length 36 m; draft 3.6 m.

Type: Other ship. MMSI: 357030000.

Date/timePositionNaut miles runAvg speedWind from/ knotsBaromVisibWave heightAir tempDewpointWater temp
2015-Dec-30 12:27N 34°23' E 033°05'6 6.9
2015-Dec-30 11:34N 34°29' E 033°06'7 6.6
2015-Dec-30 10:34N 34°36' E 033°06'5 4.7
2015-Dec-30 09:34N 34°40' E 033°05'1 0.6
2015-Dec-30 08:33N 34°41' E 033°05'0 0.0
2015-Dec-30 07:33N 34°41' E 033°05'0 0.0
2015-Dec-30 06:33N 34°41' E 033°05'2 2.4
2015-Dec-30 05:33N 34°38' E 033°04'6 5.9
2015-Dec-30 04:33N 34°32' E 033°05'6 6.4
2015-Dec-30 03:33N 34°26' E 033°04'  

Dump ship's entire track history